Ames Lake, Washington
Current Conditions -  °F | °C
As of 2:53 PM on Friday 28 Nov 2014 (Local Time) from KBFI Reporting Station
Light Rain Light Rain  
Wind Chill: 38°   Ceiling: 3000
Heat Index: 42°   Visibility: 5mi
Dew Point: 36°   Wind: 6mph
Humidity: 79%   Direction: 20°NNE
Pressure: 29.49"   Gusts: NA
Location:  47.6833°N, 122.123°W
Report Text: KBFI 282253Z 02005KT 5SM -RA SCT013 OVC030 06/02 A2949 RMK AO2 SLP985 P0004 T00560022
Loading
Personal Weather Stations






























Interactive Weather Map New forecast layout! Learn more

10-Day Weather Forecast

Advertisements
Track Severe Weather on mobile